Empire, CO

12:02 AM MDT on October 01, 2016 (GMT -0600)
Berthoud Pass

Weather History for K0CO - September, 2013

Change the Weather History Date:

Friday, September 20, 2013

  Actual Average (KCCU) Record (KCCU)
Temperature  
Mean Temperature 37 °F -  
Max Temperature 46 °F - 64 °F (2014)
Min Temperature 28 °F - 26 °F (2002)
Degree Days  
Heating Degree Days 28    
Month to date heating degree days  
Cooling Degree Days 0    
Month to date cooling degree days  
Moisture  
Dew Point 28 °F    
Average Humidity 71    
Maximum Humidity 81    
Minimum Humidity 66    
Precipitation  
Precipitation 0.00 in - 0.04 in (2004)
Sea Level Pressure  
Sea Level Pressure 30.51 in    
Wind  
Wind Speed 11 mph (NW)    
Max Wind Speed 18 mph    
Max Gust Speed 28 mph    
Visibility 10 miles    
Events Thunderstorm    
T = Trace of Precipitation, MM = Missing Value Source: NWS Daily Summary

Daily Weather History Graph

Daily Weather History Graph

Search for Another Location

Airport or City:

Trip Planner

Search our weather history database for the weather conditions in past years. The results will help you decide how hot, cold, wet, or windy it might be!

Date:

Astronomy

Sep. 20, 2013 Rise Set
Actual Time 6:49 AM MDT 7:02 PM MDT
Civil Twilight 6:22 AM MDT 7:29 PM MDT
Nautical Twilight 5:50 AM MDT 8:01 PM MDT
Astronomical Twilight 5:18 AM MDT 8:33 PM MDT
Moon 7:38 PM MDT (9/20) 8:06 AM MDT (9/20)
Length of Visible Light 13h 07m
Length of Day
12h 13m
Full, 98% of the Moon is Illuminated
Sep 20
Full
Sep 26
Last Quarter
Oct 4
New
Oct 11
First Quarter
Oct 18
Full

Hourly Weather History & Observations

Time (MDT) Temp. Windchill Dew Point Humidity Pressure Visibility Wind Dir Wind Speed Gust Speed Precip Events Conditions
12:09 AM 32.0 °F 23.6 °F 23.0 °F 69% 30.50 in 10.0 mi West 10.4 mph - N/A   Clear
12:29 AM 32.0 °F 24.2 °F 23.0 °F 69% 30.50 in 10.0 mi West 9.2 mph 16.1 mph N/A   Clear
12:49 AM 32.0 °F 24.2 °F 23.0 °F 69% 30.49 in 10.0 mi West 9.2 mph 16.1 mph N/A   Clear
1:09 AM 32.0 °F 23.0 °F 23.0 °F 69% 30.49 in 10.0 mi West 11.5 mph - N/A   Clear
1:29 AM 32.0 °F 24.2 °F 23.0 °F 69% 30.49 in 10.0 mi West 9.2 mph - N/A   Clear
1:49 AM 32.0 °F 24.2 °F 23.0 °F 69% 30.49 in 10.0 mi West 9.2 mph - N/A   Clear
2:09 AM 32.0 °F 24.2 °F 23.0 °F 69% 30.49 in 10.0 mi West 9.2 mph - N/A   Clear
2:29 AM 30.2 °F 21.3 °F 21.2 °F 69% 30.49 in 10.0 mi West 10.4 mph - N/A   Clear
2:49 AM 30.2 °F 21.9 °F 21.2 °F 69% 30.48 in 10.0 mi WNW 9.2 mph - N/A   Clear
3:09 AM 30.2 °F 20.8 °F 21.2 °F 69% 30.48 in 10.0 mi West 11.5 mph - N/A   Clear
3:29 AM 30.2 °F 21.3 °F 21.2 °F 69% 30.48 in 10.0 mi West 10.4 mph - N/A   Clear
3:49 AM 30.2 °F 21.9 °F 21.2 °F 69% 30.48 in 10.0 mi West 9.2 mph - N/A   Clear
4:09 AM 30.2 °F 21.9 °F 21.2 °F 69% 30.48 in 10.0 mi West 9.2 mph - N/A   Clear
4:29 AM 30.2 °F 19.8 °F 21.2 °F 69% 30.47 in 10.0 mi West 13.8 mph 19.6 mph N/A   Clear
4:49 AM 30.2 °F 18.9 °F 21.2 °F 69% 30.47 in 10.0 mi West 16.1 mph 20.7 mph N/A   Clear
5:09 AM 30.2 °F 19.3 °F 21.2 °F 69% 30.47 in 10.0 mi West 15.0 mph 20.7 mph N/A   Clear
5:29 AM 30.2 °F 19.3 °F 21.2 °F 69% 30.47 in 10.0 mi WNW 15.0 mph 19.6 mph N/A   Clear
5:49 AM 30.2 °F 18.5 °F 21.2 °F 69% 30.47 in 10.0 mi WNW 17.3 mph 21.9 mph N/A   Clear
6:09 AM 28.4 °F 18.0 °F 19.4 °F 69% 30.47 in 10.0 mi NW 12.7 mph 20.7 mph N/A   Clear
6:29 AM 28.4 °F 17.5 °F 19.4 °F 69% 30.47 in 10.0 mi NW 13.8 mph 21.9 mph N/A   Clear
6:49 AM 28.4 °F 16.6 °F 19.4 °F 69% 30.47 in 10.0 mi NW 16.1 mph - N/A   Clear
7:09 AM 28.4 °F 17.5 °F 19.4 °F 69% 30.47 in 10.0 mi NW 13.8 mph 21.9 mph N/A   Clear
7:28 AM 30.2 °F 19.8 °F 21.2 °F 69% 30.48 in 10.0 mi NW 13.8 mph 21.9 mph N/A   Clear
7:48 AM 30.2 °F 18.9 °F 21.2 °F 69% 30.48 in 10.0 mi NW 16.1 mph 23.0 mph N/A   Clear
8:09 AM 30.2 °F 19.3 °F 21.2 °F 69% 30.49 in 10.0 mi NW 15.0 mph 27.6 mph N/A   Clear
8:28 AM 30.2 °F 18.1 °F 21.2 °F 69% 30.49 in 10.0 mi NW 18.4 mph 23.0 mph N/A   Clear
8:48 AM 30.2 °F 18.9 °F 21.2 °F 69% 30.50 in 10.0 mi NW 16.1 mph - N/A   Clear
9:09 AM 32.0 °F 21.6 °F 23.0 °F 69% 30.50 in 10.0 mi NW 15.0 mph - N/A Thunderstorm Thunderstorm
9:29 AM 32.0 °F 22.1 °F 23.0 °F 69% 30.52 in 10.0 mi NW 13.8 mph - N/A Thunderstorm Thunderstorm
9:49 AM 32.0 °F 21.6 °F 23.0 °F 69% 30.52 in 10.0 mi NW 15.0 mph - N/A   Clear
10:09 AM 32.0 °F 21.2 °F 26.6 °F 80% 30.52 in 10.0 mi NW 16.1 mph - N/A   Clear
10:28 AM 33.8 °F 23.9 °F 26.6 °F 75% 30.52 in 10.0 mi NW 15.0 mph 21.9 mph N/A   Clear
10:49 AM 33.8 °F 25.3 °F 26.6 °F 75% 30.54 in 10.0 mi NW 11.5 mph - N/A   Clear
11:09 AM 35.6 °F 27.1 °F 28.4 °F 75% 30.53 in 10.0 mi NW 12.7 mph 20.7 mph N/A Thunderstorm Thunderstorm
11:29 AM 35.6 °F 26.6 °F 28.4 °F 75% 30.54 in 10.0 mi WNW 13.8 mph - N/A Thunderstorm Thunderstorm
11:49 AM 37.4 °F 30.8 °F 30.2 °F 75% 30.54 in 10.0 mi NW 9.2 mph - N/A   Clear
12:08 PM 37.4 °F 32.1 °F 30.2 °F 75% 30.55 in 10.0 mi NNW 6.9 mph - N/A Thunderstorm Thunderstorm
12:29 PM 41.0 °F 35.2 °F 32.0 °F 70% 30.55 in 10.0 mi NW 9.2 mph - N/A Thunderstorm Thunderstorm
12:49 PM 41.0 °F 35.8 °F 32.0 °F 70% 30.55 in 10.0 mi NW 8.1 mph - N/A Thunderstorm Thunderstorm
1:09 PM 42.8 °F 37.5 °F 33.8 °F 70% 30.55 in 10.0 mi NW 9.2 mph - N/A   Clear
1:29 PM 42.8 °F 38.6 °F 33.8 °F 70% 30.55 in 10.0 mi WNW 6.9 mph - N/A   Clear
1:49 PM 42.8 °F 40.1 °F 33.8 °F 70% 30.54 in 10.0 mi North 4.6 mph - N/A   Clear
2:09 PM 44.6 °F 41.4 °F 33.8 °F 66% 30.54 in 10.0 mi NNW 5.8 mph 16.1 mph N/A Thunderstorm Thunderstorm
2:29 PM 44.6 °F 39.2 °F 35.6 °F 71% 30.54 in 10.0 mi NW 10.4 mph 16.1 mph N/A Thunderstorm Thunderstorm
2:49 PM 44.6 °F 40.7 °F 35.6 °F 71% 30.54 in 10.0 mi NNW 6.9 mph - N/A Thunderstorm Thunderstorm
3:09 PM 44.6 °F 39.7 °F 35.6 °F 71% 30.54 in 10.0 mi NW 9.2 mph 16.1 mph N/A Thunderstorm Thunderstorm
3:29 PM 46.4 °F 42.4 °F 37.4 °F 71% 30.53 in 10.0 mi NNW 8.1 mph 17.3 mph N/A Thunderstorm Thunderstorm
3:49 PM 44.6 °F 39.7 °F 35.6 °F 71% 30.54 in 10.0 mi West 9.2 mph - N/A   Clear
4:09 PM 44.6 °F 40.2 °F 35.6 °F 71% 30.54 in 10.0 mi NNW 8.1 mph - N/A   Clear
4:29 PM 44.6 °F 39.7 °F 35.6 °F 71% 30.54 in 10.0 mi NW 9.2 mph 19.6 mph N/A   Clear
4:49 PM 44.6 °F 38.8 °F 35.6 °F 71% 30.53 in 10.0 mi NW 11.5 mph 17.3 mph N/A   Clear
5:09 PM 44.6 °F 39.2 °F 35.6 °F 71% 30.53 in 10.0 mi NW 10.4 mph - N/A   Clear
5:29 PM 44.6 °F 38.4 °F 35.6 °F 71% 30.52 in 10.0 mi NW 12.7 mph - N/A   Clear
5:49 PM 44.6 °F 39.7 °F 35.6 °F 71% 30.52 in 10.0 mi NNW 9.2 mph - N/A   Clear
6:09 PM 42.8 °F 37.5 °F 33.8 °F 70% 30.52 in 10.0 mi NNW 9.2 mph - N/A   Clear
6:29 PM 42.8 °F 38.6 °F 33.8 °F 70% 30.52 in 10.0 mi NW 6.9 mph - N/A   Clear
6:49 PM 41.0 °F 39.0 °F 32.0 °F 70% 30.52 in 10.0 mi North 3.5 mph - N/A   Clear
7:09 PM 39.2 °F 35.0 °F 32.0 °F 75% 30.52 in 10.0 mi NNW 5.8 mph - N/A   Clear
7:29 PM 39.2 °F 32.5 °F 32.0 °F 75% 30.52 in 10.0 mi NW 10.4 mph - N/A   Clear
7:49 PM 39.2 °F 33.0 °F 32.0 °F 75% 30.52 in 10.0 mi NNW 9.2 mph - N/A   Clear
8:09 PM 39.2 °F 32.0 °F 32.0 °F 75% 30.53 in 10.0 mi NW 11.5 mph - N/A   Clear
8:29 PM 39.2 °F 32.5 °F 32.0 °F 75% 30.53 in 10.0 mi NNW 10.4 mph - N/A   Clear
8:49 PM 39.2 °F 32.0 °F 32.0 °F 75% 30.53 in 10.0 mi NNW 11.5 mph - N/A   Clear
9:09 PM 39.2 °F 32.5 °F 32.0 °F 75% 30.54 in 10.0 mi NW 10.4 mph - N/A   Clear
9:29 PM 37.4 °F 29.3 °F 32.0 °F 81% 30.53 in 10.0 mi NW 12.7 mph 16.1 mph N/A   Clear
9:49 PM 37.4 °F 29.8 °F 30.2 °F 75% 30.54 in 10.0 mi NW 11.5 mph - N/A   Clear
10:09 PM 39.2 °F 35.9 °F 32.0 °F 75% 30.54 in 10.0 mi North 4.6 mph - N/A   Clear
10:29 PM 37.4 °F 32.1 °F 30.2 °F 75% 30.54 in 10.0 mi NW 6.9 mph - N/A   Clear
10:49 PM 37.4 °F 30.3 °F 30.2 °F 75% 30.53 in 10.0 mi WNW 10.4 mph - N/A   Clear
11:09 PM 37.4 °F 29.8 °F 30.2 °F 75% 30.52 in 10.0 mi NW 11.5 mph - N/A   Clear
11:29 PM 37.4 °F 29.8 °F 30.2 °F 75% 30.52 in 10.0 mi NW 11.5 mph - N/A   Clear
11:49 PM 37.4 °F 30.3 °F 30.2 °F 75% 30.52 in 10.0 mi NW 10.4 mph - N/A   Clear